Hauptseite
METAR-TAF:

METAR-TAF

Flughäfen :

Fliegerhorst Hohn

Hohn, Deutschland

Breite: 54-19N, Länge: 009-32E, Höhe: 12 m

Beobachtung

Neuester Wetterbericht von vor 48 Minuten, um 07:20 UTC
Wind 3 kt aus unterschiedlichen Richtungen
Temperatur 21°C
Luftfeuchtigkeit 64%
Luftdruck 1025 hPa
Sichtweite 10 km oder mehr

METAR: ETNH 110720Z VRB03KT 9999 21/14 Q1025 BLU+

Zeit: 10:08 (08:08 UTC)

Prognose

Neuester Wetterbericht von vor 55 Minuten, um 07:13 UTC
Gültige Prognose vom 11 um 08 UTC bis 11 um 17 UTC
Wind 5 kt aus Ost
Sichtweite 10 km oder mehr
Leicht bewölkt in der Höhe von 35000 ft

TAF: ETNH 110713Z 1108/1117 09005KT 9999 NSW FEW350 BY ETGL

Wetterbeobachtungen und Prognosen von mehr als 4000 Flughäfen (METAR und TAF Bericht).

Die verfügbaren Stationen werden durch gelbe und rote Markierungen auf der Karte dargestellt.

Führen Sie die Maus auf sie, um den Namen der Station zu sehen.

Darauf klicken, um die Beobachtung von Wetterbeobachtungen und Prognosen zu sehen.

Um die Karte zu ändern : klicken Sie auf den grünen Tasten mit einem schwarzen Kreuz Zum Vergrößern, auf den grünen Button mit einem Gedankenstrich zu verkleinern, oder auf die grünen Pfeile für benachbarte Karten.


METAR-TAF: